NCAR-RAP Real-Time Weather Data

Output produced by METARs form (30 April 2017  15:04 UTC)
found at http://weather.rap.ucar.edu/surface/
 
Conditions at: KAPF observed 30 April 2017  14:53 UTC
Temperature: 29.4°C (85°F)
Dewpoint: 20.6°C (69°F) [RH = 59%]
Pressure (altimeter): 30.09 inches Hg (1019.0 mb)
[Sea-level pressure: 1018.6 mb]
Winds: from the ESE (120 degrees) at 18 MPH (16 knots; 8.3 m/s)
gusting to 29 MPH (25 knots; 13.0 m/s)
Visibility: 10 or more miles (16+ km)
Ceiling: at least 12,000 feet AGL
Clouds: scattered clouds at 1800 feet AGL
Present Weather:
SOME DATA ABOVE MAY BE INACCURATE!!!
"$" is an indication the sensor requires maintenance
KAPF 301453Z 12016G25KT 10SM SCT018 29/21 A3009 RMK AO2 SLP186 T02940206 51003 $

Conditions at: KAPF observed 30 April 2017  13:53 UTC
Temperature: 26.7°C (80°F)
Dewpoint: 21.1°C (70°F) [RH = 71%]
Pressure (altimeter): 30.08 inches Hg (1018.7 mb)
[Sea-level pressure: 1018.5 mb]
Winds: from the ESE (110 degrees) at 18 MPH (16 knots; 8.3 m/s)
gusting to 26 MPH (23 knots; 12.0 m/s)
Visibility: 10 or more miles (16+ km)
Ceiling: at least 12,000 feet AGL
Clouds: few clouds at 3500 feet AGL
Present Weather:
SOME DATA ABOVE MAY BE INACCURATE!!!
"$" is an indication the sensor requires maintenance
KAPF 301353Z 11016G23KT 10SM FEW035 27/21 A3008 RMK AO2 SLP185 T02670211 $

Conditions at: KAPF observed 30 April 2017  12:53 UTC
Temperature: 26.1°C (79°F)
Dewpoint: 21.7°C (71°F) [RH = 77%]
Pressure (altimeter): 30.09 inches Hg (1019.0 mb)
[Sea-level pressure: 1018.6 mb]
Winds: from the ESE (110 degrees) at 14 MPH (12 knots; 6.2 m/s)
Visibility: 10 or more miles (16+ km)
Ceiling: 3400 feet AGL
Clouds: broken clouds at 3400 feet AGL
Present Weather:
SOME DATA ABOVE MAY BE INACCURATE!!!
"$" is an indication the sensor requires maintenance
KAPF 301253Z 11012KT 10SM BKN034 26/22 A3009 RMK AO2 SLP186 T02610217 $

Conditions at: KAPF observed 30 April 2017  11:53 UTC
Temperature: 24.4°C (76°F)
Dewpoint: 21.7°C (71°F) [RH = 85%]
Pressure (altimeter): 30.08 inches Hg (1018.7 mb)
[Sea-level pressure: 1018.4 mb]
Winds: from the E (100 degrees) at 14 MPH (12 knots; 6.2 m/s)
gusting to 23 MPH (20 knots; 10.4 m/s)
Visibility: 9 miles (14 km)
Ceiling: at least 12,000 feet AGL
Clouds: sky clear below 12,000 feet AGL
Present Weather:
SOME DATA ABOVE MAY BE INACCURATE!!!
"$" is an indication the sensor requires maintenance
KAPF 301153Z 10012G20KT 9SM CLR 24/22 A3008 RMK AO2 SLP184 T02440217 10256 20233 53008 $

Conditions at: KAPF observed 30 April 2017  10:53 UTC
Temperature: 23.9°C (75°F)
Dewpoint: 21.7°C (71°F) [RH = 88%]
Pressure (altimeter): 30.07 inches Hg (1018.4 mb)
[Sea-level pressure: 1018.1 mb]
Winds: from the E (90 degrees) at 8 MPH (7 knots; 3.6 m/s)
Visibility: 9 miles (14 km)
Ceiling: at least 12,000 feet AGL
Clouds: sky clear below 12,000 feet AGL
Present Weather:
SOME DATA ABOVE MAY BE INACCURATE!!!
"$" is an indication the sensor requires maintenance
KAPF 301053Z 09007KT 9SM CLR 24/22 A3007 RMK AO2 SLP181 T02390217 $

Conditions at: KAPF observed 30 April 2017  09:53 UTC
Temperature: 23.3°C (74°F)
Dewpoint: 21.7°C (71°F) [RH = 91%]
Pressure (altimeter): 30.05 inches Hg (1017.7 mb)
[Sea-level pressure: 1017.6 mb]
Winds: from the E (100 degrees) at 9 MPH (8 knots; 4.2 m/s)
Visibility: 10 or more miles (16+ km)
Ceiling: at least 12,000 feet AGL
Clouds: sky clear below 12,000 feet AGL
Present Weather:
SOME DATA ABOVE MAY BE INACCURATE!!!
"$" is an indication the sensor requires maintenance
KAPF 300953Z 10008KT 10SM CLR 23/22 A3005 RMK AO2 SLP176 T02330217 $

Conditions at: KAPF observed 30 April 2017  08:53 UTC
Temperature: 23.3°C (74°F)
Dewpoint: 21.7°C (71°F) [RH = 91%]
Pressure (altimeter): 30.05 inches Hg (1017.7 mb)
[Sea-level pressure: 1017.5 mb]
Winds: from the E (100 degrees) at 8 MPH (7 knots; 3.6 m/s)
Visibility: 10 or more miles (16+ km)
Ceiling: at least 12,000 feet AGL
Clouds: sky clear below 12,000 feet AGL
Present Weather:
SOME DATA ABOVE MAY BE INACCURATE!!!
"$" is an indication the sensor requires maintenance
KAPF 300853Z AUTO 10007KT 10SM CLR 23/22 A3005 RMK AO2 SLP175 T02330217 57005 $

Conditions at: KAPF observed 30 April 2017  07:53 UTC
Temperature: 23.9°C (75°F)
Dewpoint: 21.7°C (71°F) [RH = 88%]
Pressure (altimeter): 30.06 inches Hg (1018.0 mb)
[Sea-level pressure: 1017.8 mb]
Winds: from the E (100 degrees) at 9 MPH (8 knots; 4.2 m/s)
Visibility: 10 or more miles (16+ km)
Ceiling: at least 12,000 feet AGL
Clouds: sky clear below 12,000 feet AGL
Present Weather:
SOME DATA ABOVE MAY BE INACCURATE!!!
"$" is an indication the sensor requires maintenance
KAPF 300753Z AUTO 10008KT 10SM CLR 24/22 A3006 RMK AO2 SLP178 T02390217 $

Conditions at: KAPF observed 30 April 2017  06:53 UTC
Temperature: 24.4°C (76°F)
Dewpoint: 21.7°C (71°F) [RH = 85%]
Pressure (altimeter): 30.06 inches Hg (1018.0 mb)
[Sea-level pressure: 1017.8 mb]
Winds: from the E (90 degrees) at 8 MPH (7 knots; 3.6 m/s)
Visibility: 10 or more miles (16+ km)
Ceiling: 4200 feet AGL
Clouds: broken clouds at 4200 feet AGL
overcast cloud deck at 7000 feet AGL
Present Weather:
SOME DATA ABOVE MAY BE INACCURATE!!!
"$" is an indication the sensor requires maintenance
KAPF 300653Z AUTO 09007KT 10SM BKN042 OVC070 24/22 A3006 RMK AO2 SLP178 T02440217 $

Conditions at: KAPF observed 30 April 2017  05:53 UTC
Temperature: 25.0°C (77°F)
Dewpoint: 21.7°C (71°F) [RH = 82%]
Pressure (altimeter): 30.07 inches Hg (1018.4 mb)
[Sea-level pressure: 1018.0 mb]
Winds: from the E (100 degrees) at 9 MPH (8 knots; 4.2 m/s)
Visibility: 10 or more miles (16+ km)
Ceiling: at least 12,000 feet AGL
Clouds: scattered clouds at 6000 feet AGL
Present Weather:
SOME DATA ABOVE MAY BE INACCURATE!!!
"$" is an indication the sensor requires maintenance
KAPF 300553Z AUTO 10008KT 10SM SCT060 25/22 A3007 RMK AO2 SLP180 T02500217 10294 20250 58005 $

Conditions at: KAPF observed 30 April 2017  04:53 UTC
Temperature: 25.0°C (77°F)
Dewpoint: 21.7°C (71°F) [RH = 82%]
Pressure (altimeter): 30.07 inches Hg (1018.4 mb)
[Sea-level pressure: 1018.3 mb]
Winds: from the E (90 degrees) at 10 MPH (9 knots; 4.7 m/s)
Visibility: 10 or more miles (16+ km)
Ceiling: at least 12,000 feet AGL
Clouds: sky clear below 12,000 feet AGL
Present Weather:
SOME DATA ABOVE MAY BE INACCURATE!!!
"$" is an indication the sensor requires maintenance
KAPF 300453Z AUTO 09009KT 10SM CLR 25/22 A3007 RMK AO2 SLP183 T02500217 403500239 $

Conditions at: KAPF observed 30 April 2017  03:53 UTC
Temperature: 25.6°C (78°F)
Dewpoint: 21.1°C (70°F) [RH = 76%]
Pressure (altimeter): 30.09 inches Hg (1019.0 mb)
[Sea-level pressure: 1018.6 mb]
Winds: from the E (90 degrees) at 13 MPH (11 knots; 5.7 m/s)
Visibility: 10 or more miles (16+ km)
Ceiling: at least 12,000 feet AGL
Clouds: scattered clouds at 4400 feet AGL
Present Weather:
SOME DATA ABOVE MAY BE INACCURATE!!!
"$" is an indication the sensor requires maintenance
KAPF 300353Z AUTO 09011KT 10SM SCT044 26/21 A3009 RMK AO2 SLP186 T02560211 $

Conditions at: KAPF observed 30 April 2017  02:53 UTC
Temperature: 25.6°C (78°F)
Dewpoint: 20.6°C (69°F) [RH = 74%]
Pressure (altimeter): 30.08 inches Hg (1018.7 mb)
[Sea-level pressure: 1018.5 mb]
Winds: from the E (90 degrees) at 13 MPH (11 knots; 5.7 m/s)
Visibility: 10 or more miles (16+ km)
Ceiling: at least 12,000 feet AGL
Clouds: sky clear below 12,000 feet AGL
Present Weather:
SOME DATA ABOVE MAY BE INACCURATE!!!
"$" is an indication the sensor requires maintenance
KAPF 300253Z AUTO 09011KT 10SM CLR 26/21 A3008 RMK AO2 SLP185 T02560206 51015 $

Conditions at: KAPF observed 30 April 2017  01:53 UTC
Temperature: 26.7°C (80°F)
Dewpoint: 19.4°C (67°F) [RH = 64%]
Pressure (altimeter): 30.07 inches Hg (1018.4 mb)
[Sea-level pressure: 1018.0 mb]
Winds: from the E (90 degrees) at 10 MPH (9 knots; 4.7 m/s)
Visibility: 10 or more miles (16+ km)
Ceiling: at least 12,000 feet AGL
Clouds: sky clear below 12,000 feet AGL
Present Weather:
SOME DATA ABOVE MAY BE INACCURATE!!!
"$" is an indication the sensor requires maintenance
KAPF 300153Z 09009KT 10SM CLR 27/19 A3007 RMK AO2 SLP180 T02670194 $

Conditions at: KAPF observed 30 April 2017  00:53 UTC
Temperature: 28.3°C (83°F)
Dewpoint: 17.8°C (64°F) [RH = 53%]
Pressure (altimeter): 30.06 inches Hg (1018.0 mb)
[Sea-level pressure: 1017.7 mb]
Winds: from the E (100 degrees) at 14 MPH (12 knots; 6.2 m/s)
Visibility: 10 or more miles (16+ km)
Ceiling: at least 12,000 feet AGL
Clouds: few clouds at 6000 feet AGL
Present Weather:
SOME DATA ABOVE MAY BE INACCURATE!!!
"$" is an indication the sensor requires maintenance
KAPF 300053Z 10012KT 10SM FEW060 28/18 A3006 RMK AO2 SLP177 T02830178 $

Conditions at: KAPF observed 29 April 2017  23:53 UTC
Temperature: 29.4°C (85°F)
Dewpoint: 17.2°C (63°F) [RH = 48%]
Pressure (altimeter): 30.04 inches Hg (1017.4 mb)
[Sea-level pressure: 1017.1 mb]
Winds: from the ESE (110 degrees) at 14 MPH (12 knots; 6.2 m/s)
Visibility: 10 or more miles (16+ km)
Ceiling: at least 12,000 feet AGL
Clouds: few clouds at 6000 feet AGL
Present Weather:
SOME DATA ABOVE MAY BE INACCURATE!!!
"$" is an indication the sensor requires maintenance
KAPF 292353Z 11012KT 10SM FEW060 29/17 A3004 RMK AO2 SLP171 T02940172 10350 20294 53005 $

Conditions at: KAPF observed 29 April 2017  22:53 UTC
Temperature: 30.6°C (87°F)
Dewpoint: 16.1°C (61°F) [RH = 42%]
Pressure (altimeter): 30.03 inches Hg (1017.0 mb)
[Sea-level pressure: 1016.6 mb]
Winds: from the E (100 degrees) at 14 MPH (12 knots; 6.2 m/s)
Visibility: 10 or more miles (16+ km)
Ceiling: at least 12,000 feet AGL
Clouds: scattered clouds at 6000 feet AGL
Present Weather:
SOME DATA ABOVE MAY BE INACCURATE!!!
"$" is an indication the sensor requires maintenance
KAPF 292253Z 10012KT 10SM SCT060 31/16 A3003 RMK AO2 SLP166 T03060161 $

Conditions at: KAPF observed 29 April 2017  21:53 UTC
Temperature: 32.8°C (91°F)
Dewpoint: 15.0°C (59°F) [RH = 34%]
Pressure (altimeter): 30.02 inches Hg (1016.7 mb)
[Sea-level pressure: 1016.3 mb]
Winds: from the E (100 degrees) at 16 MPH (14 knots; 7.3 m/s)
Visibility: 10 or more miles (16+ km)
Ceiling: at least 12,000 feet AGL
Clouds: scattered clouds at 7000 feet AGL
Present Weather:
SOME DATA ABOVE MAY BE INACCURATE!!!
"$" is an indication the sensor requires maintenance
KAPF 292153Z 10014KT 10SM SCT070 33/15 A3002 RMK AO2 SLP163 T03280150 $

Conditions at: KAPF observed 29 April 2017  20:53 UTC
Temperature: 32.8°C (91°F)
Dewpoint: 15.6°C (60°F) [RH = 36%]
Pressure (altimeter): 30.02 inches Hg (1016.7 mb)
[Sea-level pressure: 1016.5 mb]
Winds: from the ESE (110 degrees) at 14 MPH (12 knots; 6.2 m/s)
gusting to 25 MPH (22 knots; 11.4 m/s)
Visibility: 10 or more miles (16+ km)
Ceiling: at least 12,000 feet AGL
Clouds: scattered clouds at 7000 feet AGL
Present Weather:
SOME DATA ABOVE MAY BE INACCURATE!!!
"$" is an indication the sensor requires maintenance
KAPF 292053Z 11012G22KT 10SM SCT070 33/16 A3002 RMK AO2 SLP165 T03280156 56018 $

Conditions at: KAPF observed 29 April 2017  19:53 UTC
Temperature: 33.9°C (93°F)
Dewpoint: 16.1°C (61°F) [RH = 35%]
Pressure (altimeter): 30.03 inches Hg (1017.0 mb)
[Sea-level pressure: 1016.8 mb]
Winds: from the E (90 degrees) at 13 MPH (11 knots; 5.7 m/s)
gusting to 22 MPH (19 knots; 9.9 m/s)
Visibility: 10 or more miles (16+ km)
Ceiling: at least 12,000 feet AGL
Clouds: scattered clouds at 7000 feet AGL
Present Weather:
SOME DATA ABOVE MAY BE INACCURATE!!!
"$" is an indication the sensor requires maintenance
KAPF 291953Z 09011G19KT 10SM SCT070 34/16 A3003 RMK AO2 SLP168 T03390161 $

Conditions at: KAPF observed 29 April 2017  18:53 UTC
Temperature: 34.4°C (94°F)
Dewpoint: 16.1°C (61°F) [RH = 34%]
Pressure (altimeter): 30.06 inches Hg (1018.0 mb)
[Sea-level pressure: 1017.7 mb]
Winds: from the ESE (110 degrees) at 18 MPH (16 knots; 8.3 m/s)
gusting to 24 MPH (21 knots; 10.9 m/s)
Visibility: 10 or more miles (16+ km)
Ceiling: at least 12,000 feet AGL
Clouds: few clouds at 7000 feet AGL
Present Weather:
SOME DATA ABOVE MAY BE INACCURATE!!!
"$" is an indication the sensor requires maintenance
KAPF 291853Z 11016G21KT 10SM FEW070 34/16 A3006 RMK AO2 SLP177 T03440161 $

Conditions at: KAPF observed 29 April 2017  17:53 UTC
Temperature: 32.8°C (91°F)
Dewpoint: 17.8°C (64°F) [RH = 41%]
Pressure (altimeter): 30.08 inches Hg (1018.7 mb)
[Sea-level pressure: 1018.3 mb]
Winds: from the SE (130 degrees) at 16 MPH (14 knots; 7.3 m/s)
gusting to 23 MPH (20 knots; 10.4 m/s)
Visibility: 10 or more miles (16+ km)
Ceiling: at least 12,000 feet AGL
Clouds: scattered clouds at 6000 feet AGL
Present Weather:
SOME DATA ABOVE MAY BE INACCURATE!!!
"$" is an indication the sensor requires maintenance
KAPF 291753Z 13014G20KT 10SM SCT060 33/18 A3008 RMK AO2 SLP183 T03280178 10333 20250 56014 $

Conditions at: KAPF observed 29 April 2017  16:53 UTC
Temperature: 32.8°C (91°F)
Dewpoint: 17.8°C (64°F) [RH = 41%]
Pressure (altimeter): 30.09 inches Hg (1019.0 mb)
[Sea-level pressure: 1018.8 mb]
Winds: from the SSE (150 degrees) at 18 MPH (16 knots; 8.3 m/s)
Visibility: 10 or more miles (16+ km)
Ceiling: at least 12,000 feet AGL
Clouds: scattered clouds at 5500 feet AGL
Present Weather:
SOME DATA ABOVE MAY BE INACCURATE!!!
"$" is an indication the sensor requires maintenance
KAPF 291653Z 15016KT 10SM SCT055 33/18 A3009 RMK AO2 SLP188 T03280178 $

Conditions at: KAPF observed 29 April 2017  15:53 UTC
Temperature: 32.2°C (90°F)
Dewpoint: 18.3°C (65°F) [RH = 44%]
Pressure (altimeter): 30.09 inches Hg (1019.0 mb)
[Sea-level pressure: 1018.9 mb]
Winds: from the ESE (110 degrees) at 18 MPH (16 knots; 8.3 m/s)
gusting to 23 MPH (20 knots; 10.4 m/s)
Visibility: 10 or more miles (16+ km)
Ceiling: at least 12,000 feet AGL
Clouds: scattered clouds at 4500 feet AGL
Present Weather:
SOME DATA ABOVE MAY BE INACCURATE!!!
"$" is an indication the sensor requires maintenance
KAPF 291553Z 11016G20KT 10SM SCT045 32/18 A3009 RMK AO2 SLP189 T03220183 $

Conditions at: KAPF observed 29 April 2017  14:53 UTC
Temperature: 30.6°C (87°F)
Dewpoint: 20.0°C (68°F) [RH = 53%]
Pressure (altimeter): 30.12 inches Hg (1020.1 mb)
[Sea-level pressure: 1019.7 mb]
Winds: from the ESE (120 degrees) at 13 MPH (11 knots; 5.7 m/s)
Visibility: 10 or more miles (16+ km)
Ceiling: 3700 feet AGL
Clouds: broken clouds at 3700 feet AGL
broken clouds at 4500 feet AGL
Present Weather:
SOME DATA ABOVE MAY BE INACCURATE!!!
"$" is an indication the sensor requires maintenance
KAPF 291453Z 12011KT 10SM BKN037 BKN045 31/20 A3012 RMK AO2 SLP197 T03060200 50006 $

Conditions at: KAPF observed 29 April 2017  13:53 UTC
Temperature: 28.9°C (84°F)
Dewpoint: 21.1°C (70°F) [RH = 63%]
Pressure (altimeter): 30.12 inches Hg (1020.1 mb)
[Sea-level pressure: 1019.9 mb]
Winds: from the ESE (110 degrees) at 17 MPH (15 knots; 7.8 m/s)
gusting to 24 MPH (21 knots; 10.9 m/s)
Visibility: 10 or more miles (16+ km)
Ceiling: at least 12,000 feet AGL
Clouds: sky clear below 12,000 feet AGL
Present Weather:
SOME DATA ABOVE MAY BE INACCURATE!!!
"$" is an indication the sensor requires maintenance
KAPF 291353Z 11015G21KT 10SM CLR 29/21 A3012 RMK AO2 SLP199 T02890211 $

Conditions at: KAPF observed 29 April 2017  12:53 UTC
Temperature: 26.7°C (80°F)
Dewpoint: 22.2°C (72°F) [RH = 76%]
Pressure (altimeter): 30.11 inches Hg (1019.7 mb)
[Sea-level pressure: 1019.5 mb]
Winds: from the ESE (110 degrees) at 15 MPH (13 knots; 6.8 m/s)
Visibility: 10 or more miles (16+ km)
Ceiling: at least 12,000 feet AGL
Clouds: sky clear below 12,000 feet AGL
Present Weather:
SOME DATA ABOVE MAY BE INACCURATE!!!
"$" is an indication the sensor requires maintenance
KAPF 291253Z 11013KT 10SM CLR 27/22 A3011 RMK AO2 SLP195 T02670222 $

Conditions at: KAPF observed 29 April 2017  11:53 UTC
Temperature: 25.0°C (77°F)
Dewpoint: 22.2°C (72°F) [RH = 84%]
Pressure (altimeter): 30.10 inches Hg (1019.4 mb)
[Sea-level pressure: 1019.1 mb]
Winds: from the E (100 degrees) at 12 MPH (10 knots; 5.2 m/s)
Visibility: 10 or more miles (16+ km)
Ceiling: at least 12,000 feet AGL
Clouds: sky clear below 12,000 feet AGL
Present Weather:
SOME DATA ABOVE MAY BE INACCURATE!!!
"$" is an indication the sensor requires maintenance
KAPF 291153Z 10010KT 10SM CLR 25/22 A3010 RMK AO2 SLP191 70008 T02500222 10250 20239 53015 $

Conditions at: KAPF observed 29 April 2017  10:53 UTC
Temperature: 23.9°C (75°F)
Dewpoint: 22.2°C (72°F) [RH = 90%]
Pressure (altimeter): 30.08 inches Hg (1018.7 mb)
[Sea-level pressure: 1018.3 mb]
Winds: from the E (90 degrees) at 8 MPH (7 knots; 3.6 m/s)
Visibility: 9 miles (14 km)
Ceiling: at least 12,000 feet AGL
Clouds: sky clear below 12,000 feet AGL
Present Weather:
SOME DATA ABOVE MAY BE INACCURATE!!!
"$" is an indication the sensor requires maintenance
KAPF 291053Z 09007KT 9SM CLR 24/22 A3008 RMK AO2 SLP183 T02390222 $

Conditions at: KAPF observed 29 April 2017  09:53 UTC
Temperature: 24.4°C (76°F)
Dewpoint: 22.2°C (72°F) [RH = 88%]
Pressure (altimeter): 30.06 inches Hg (1018.0 mb)
[Sea-level pressure: 1017.8 mb]
Winds: from the E (100 degrees) at 10 MPH (9 knots; 4.7 m/s)
Visibility: 10 or more miles (16+ km)
Ceiling: at least 12,000 feet AGL
Clouds: sky clear below 12,000 feet AGL
Present Weather:
SOME DATA ABOVE MAY BE INACCURATE!!!
"$" is an indication the sensor requires maintenance
KAPF 290953Z 10009KT 10SM CLR 24/22 A3006 RMK AO2 SLP178 T02440222 $

Conditions at: KAPF observed 29 April 2017  08:53 UTC
Temperature: 24.4°C (76°F)
Dewpoint: 22.8°C (73°F) [RH = 91%]
Pressure (altimeter): 30.06 inches Hg (1018.0 mb)
[Sea-level pressure: 1017.6 mb]
Winds: from the E (90 degrees) at 10 MPH (9 knots; 4.7 m/s)
Visibility: 9 miles (14 km)
Ceiling: at least 12,000 feet AGL
Clouds: sky clear below 12,000 feet AGL
Present Weather:
SOME DATA ABOVE MAY BE INACCURATE!!!
"$" is an indication the sensor requires maintenance
KAPF 290853Z 09009KT 9SM CLR 24/23 A3006 RMK AO2 SLP176 T02440228 55003 $

Conditions at: KAPF observed 29 April 2017  07:53 UTC
Temperature: 24.4°C (76°F)
Dewpoint: 22.8°C (73°F) [RH = 91%]
Pressure (altimeter): 30.05 inches Hg (1017.7 mb)
[Sea-level pressure: 1017.6 mb]
Winds: from the E (90 degrees) at 9 MPH (8 knots; 4.2 m/s)
Visibility: 9 miles (14 km)
Ceiling: at least 12,000 feet AGL
Clouds: sky clear below 12,000 feet AGL
Present Weather:
SOME DATA ABOVE MAY BE INACCURATE!!!
"$" is an indication the sensor requires maintenance
KAPF 290753Z 09008KT 9SM CLR 24/23 A3005 RMK AO2 SLP176 T02440228 $

Conditions at: KAPF observed 29 April 2017  06:53 UTC
Temperature: 24.4°C (76°F)
Dewpoint: 22.8°C (73°F) [RH = 91%]
Pressure (altimeter): 30.06 inches Hg (1018.0 mb)
[Sea-level pressure: 1017.7 mb]
Winds: from the E (90 degrees) at 9 MPH (8 knots; 4.2 m/s)
Visibility: 9 miles (14 km)
Ceiling: at least 12,000 feet AGL
Clouds: sky clear below 12,000 feet AGL
Present Weather:
SOME DATA ABOVE MAY BE INACCURATE!!!
"$" is an indication the sensor requires maintenance
KAPF 290653Z 09008KT 9SM CLR 24/23 A3006 RMK AO2 SLP177 T02440228 $

Conditions at: KAPF observed 29 April 2017  05:53 UTC
Temperature: 25.0°C (77°F)
Dewpoint: 22.8°C (73°F) [RH = 88%]
Pressure (altimeter): 30.07 inches Hg (1018.4 mb)
[Sea-level pressure: 1018.0 mb]
Winds: from the E (90 degrees) at 9 MPH (8 knots; 4.2 m/s)
Visibility: 9 miles (14 km)
Ceiling: at least 12,000 feet AGL
Clouds: sky clear below 12,000 feet AGL
Present Weather:
SOME DATA ABOVE MAY BE INACCURATE!!!
"$" is an indication the sensor requires maintenance
KAPF 290553Z 09008KT 9SM CLR 25/23 A3007 RMK AO2 SLP180 T02500228 10294 20250 58000 $

Conditions at: KAPF observed 29 April 2017  04:53 UTC
Temperature: 25.6°C (78°F)
Dewpoint: 22.8°C (73°F) [RH = 85%]
Pressure (altimeter): 30.07 inches Hg (1018.4 mb)
[Sea-level pressure: 1018.1 mb]
Winds: from the E (100 degrees) at 10 MPH (9 knots; 4.7 m/s)
Visibility: 10 or more miles (16+ km)
Ceiling: at least 12,000 feet AGL
Clouds: sky clear below 12,000 feet AGL
Present Weather:
SOME DATA ABOVE MAY BE INACCURATE!!!
"$" is an indication the sensor requires maintenance
KAPF 290453Z 10009KT 10SM CLR 26/23 A3007 RMK AO2 SLP181 T02560228 403390239 $

Conditions at: KAPF observed 29 April 2017  03:53 UTC
Temperature: 25.6°C (78°F)
Dewpoint: 22.2°C (72°F) [RH = 82%]
Pressure (altimeter): 30.07 inches Hg (1018.4 mb)
[Sea-level pressure: 1018.1 mb]
Winds: from the ESE (110 degrees) at 12 MPH (10 knots; 5.2 m/s)
Visibility: 10 or more miles (16+ km)
Ceiling: at least 12,000 feet AGL
Clouds: sky clear below 12,000 feet AGL
Present Weather:
SOME DATA ABOVE MAY BE INACCURATE!!!
"$" is an indication the sensor requires maintenance
KAPF 290353Z 11010KT 10SM CLR 26/22 A3007 RMK AO2 SLP181 T02560222 $

Conditions at: KAPF observed 29 April 2017  02:53 UTC
Temperature: 26.7°C (80°F)
Dewpoint: 21.7°C (71°F) [RH = 74%]
Pressure (altimeter): 30.07 inches Hg (1018.4 mb)
[Sea-level pressure: 1018.0 mb]
Winds: from the E (90 degrees) at 13 MPH (11 knots; 5.7 m/s)
Visibility: 10 or more miles (16+ km)
Ceiling: at least 12,000 feet AGL
Clouds: sky clear below 12,000 feet AGL
Present Weather:
SOME DATA ABOVE MAY BE INACCURATE!!!
"$" is an indication the sensor requires maintenance
KAPF 290253Z 09011KT 10SM CLR 27/22 A3007 RMK AO2 SLP180 T02670217 51017 $

Conditions at: KAPF observed 29 April 2017  01:53 UTC
Temperature: 27.2°C (81°F)
Dewpoint: 21.1°C (70°F) [RH = 69%]
Pressure (altimeter): 30.07 inches Hg (1018.4 mb)
[Sea-level pressure: 1018.0 mb]
Winds: from the ESE (110 degrees) at 13 MPH (11 knots; 5.7 m/s)
Visibility: 10 or more miles (16+ km)
Ceiling: at least 12,000 feet AGL
Clouds: sky clear below 12,000 feet AGL
Present Weather:
SOME DATA ABOVE MAY BE INACCURATE!!!
"$" is an indication the sensor requires maintenance
KAPF 290153Z 11011KT 10SM CLR 27/21 A3007 RMK AO2 SLP180 T02720211 $

Conditions at: KAPF observed 29 April 2017  00:53 UTC
Temperature: 28.3°C (83°F)
Dewpoint: 20.6°C (69°F) [RH = 63%]
Pressure (altimeter): 30.05 inches Hg (1017.7 mb)
[Sea-level pressure: 1017.3 mb]
Winds: from the E (100 degrees) at 12 MPH (10 knots; 5.2 m/s)
Visibility: 10 or more miles (16+ km)
Ceiling: at least 12,000 feet AGL
Clouds: sky clear below 12,000 feet AGL
Present Weather:
SOME DATA ABOVE MAY BE INACCURATE!!!
"$" is an indication the sensor requires maintenance
KAPF 290053Z 10010KT 10SM CLR 28/21 A3005 RMK AO2 SLP173 T02830206 $

Conditions at: KAPF observed 28 April 2017  23:53 UTC
Temperature: 29.4°C (85°F)
Dewpoint: 20.0°C (68°F) [RH = 57%]
Pressure (altimeter): 30.02 inches Hg (1016.7 mb)
[Sea-level pressure: 1016.3 mb]
Winds: from the ESE (110 degrees) at 13 MPH (11 knots; 5.7 m/s)
Visibility: 10 or more miles (16+ km)
Ceiling: at least 12,000 feet AGL
Clouds: scattered clouds at 7000 feet AGL
Present Weather:
SOME DATA ABOVE MAY BE INACCURATE!!!
"$" is an indication the sensor requires maintenance
KAPF 282353Z 11011KT 10SM SCT070 29/20 A3002 RMK AO2 SLP163 60008 T02940200 10339 20278 53008 $

Conditions at: KAPF observed 28 April 2017  22:53 UTC
Temperature: 29.4°C (85°F)
Dewpoint: 23.3°C (74°F) [RH = 70%]
Pressure (altimeter): 30.00 inches Hg (1016.0 mb)
[Sea-level pressure: 1015.7 mb]
Winds: from the S (170 degrees) at 6 MPH (5 knots; 2.6 m/s)
Visibility: 10 or more miles (16+ km)
Ceiling: at least 12,000 feet AGL
Clouds: sky clear below 12,000 feet AGL
Present Weather:
SOME DATA ABOVE MAY BE INACCURATE!!!
"$" is an indication the sensor requires maintenance
KAPF 282253Z 17005KT 10SM CLR 29/23 A3000 RMK AO2 SLP157 T02940233 $

Conditions at: KAPF observed 28 April 2017  21:53 UTC
Temperature: 29.4°C (85°F)
Dewpoint: 23.9°C (75°F) [RH = 72%]
Pressure (altimeter): 30.00 inches Hg (1016.0 mb)
[Sea-level pressure: 1015.6 mb]
Winds: from the S (190 degrees) at 14 MPH (12 knots; 6.2 m/s)
Visibility: 10 or more miles (16+ km)
Ceiling: 8500 feet AGL
Clouds: scattered clouds at 7000 feet AGL
broken clouds at 8500 feet AGL
Present Weather:
SOME DATA ABOVE MAY BE INACCURATE!!!
"$" is an indication the sensor requires maintenance
KAPF 282153Z 19012KT 10SM SCT070 BKN085 29/24 A3000 RMK AO2 WSHFT 2048 SLP156 T02940239 $

Conditions at: KAPF observed 28 April 2017  21:08 UTC
Temperature: 30.0°C (86°F)
Dewpoint: 25.0°C (77°F) [RH = 75%]
Pressure (altimeter): 29.99 inches Hg (1015.7 mb)
Winds: from the SSW (210 degrees) at 16 MPH (14 knots; 7.3 m/s)
Visibility: 10 or more miles (16+ km)
Ceiling: at least 12,000 feet AGL
Clouds: few clouds at 5000 feet AGL
scattered clouds at 6500 feet AGL
Present Weather:
SOME DATA ABOVE MAY BE INACCURATE!!!
"$" is an indication the sensor requires maintenance
KAPF 282108Z 21014KT 10SM FEW050 SCT065 30/25 A2999 RMK AO2 WSHFT 2048 T03000250 $

Conditions at: KAPF observed 28 April 2017  20:53 UTC
Temperature: 29.4°C (85°F)
Dewpoint: 24.4°C (76°F) [RH = 75%]
Pressure (altimeter): 29.99 inches Hg (1015.7 mb)
[Sea-level pressure: 1015.6 mb]
Winds: from the SSW (210 degrees) at 14 MPH (12 knots; 6.2 m/s)
Visibility: 8 miles (13 km)
Ceiling: 6000 feet AGL
Clouds: broken clouds at 6000 feet AGL
broken clouds at 7000 feet AGL
Present Weather:
SOME DATA ABOVE MAY BE INACCURATE!!!
"$" is an indication the sensor requires maintenance
KAPF 282053Z 21012KT 8SM BKN060 BKN070 29/24 A2999 RMK AO2 RAB05E15B44E49 SLP156 P0007 60008 T02940244 58012 $

Conditions at: KAPF observed 28 April 2017  20:09 UTC
Temperature: 28.9°C (84°F)
Dewpoint: 22.2°C (72°F) [RH = 67%]
Pressure (altimeter): 30.01 inches Hg (1016.3 mb)
Winds: variable direction winds at 5 MPH (4 knots; 2.1 m/s)
Visibility: 4 miles (6 km)
Ceiling: 4900 feet AGL
Clouds: scattered clouds at 4000 feet AGL
broken clouds at 4900 feet AGL
broken clouds at 6000 feet AGL
Present Weather: RA  (rain)
SOME DATA ABOVE MAY BE INACCURATE!!!
"$" is an indication the sensor requires maintenance
KAPF 282009Z VRB04KT 4SM RA SCT040 BKN049 BKN060 29/22 A3001 RMK AO2 RAB05 P0007 T02890222 $

Conditions at: KAPF observed 28 April 2017  19:58 UTC
Temperature: 28.9°C (84°F)
Dewpoint: 22.2°C (72°F) [RH = 67%]
Pressure (altimeter): 30.01 inches Hg (1016.3 mb)
Winds: from the SSE (160 degrees) at 9 MPH (8 knots; 4.2 m/s)
gusting to 29 MPH (25 knots; 13.0 m/s)
Visibility: 1.75 miles (2.82 km)
Ceiling: 5500 feet AGL
Clouds: scattered clouds at 4200 feet AGL
broken clouds at 5500 feet AGL
broken clouds at 7000 feet AGL
Present Weather: HZ  (haze)
SOME DATA ABOVE MAY BE INACCURATE!!!
"$" is an indication the sensor requires maintenance
KAPF 281958Z 16008G25KT 120V230 1 3/4SM HZ SCT042 BKN055 BKN070 29/22 A3001 RMK AO2 P0006 T02890222 $

Conditions at: KAPF observed 28 April 2017  19:53 UTC
Temperature: 31.7°C (89°F)
Dewpoint: 22.8°C (73°F) [RH = 59%]
Pressure (altimeter): 30.01 inches Hg (1016.3 mb)
[Sea-level pressure: 1016.0 mb]
Winds: from the E (80 degrees) at 10 MPH (9 knots; 4.7 m/s)
gusting to 22 MPH (19 knots; 9.9 m/s)
Visibility: 9 miles (14 km)
Ceiling: 6000 feet AGL
Clouds: few clouds at 4200 feet AGL
broken clouds at 6000 feet AGL
Present Weather:
SOME DATA ABOVE MAY BE INACCURATE!!!
"$" is an indication the sensor requires maintenance
KAPF 281953Z 08009G19KT 050V120 9SM FEW042 BKN060 32/23 A3001 RMK AO2 SLP160 T03170228 $

Conditions at: KAPF observed 28 April 2017  18:53 UTC
Temperature: 31.1°C (88°F)
Dewpoint: 23.3°C (74°F) [RH = 63%]
Pressure (altimeter): 30.02 inches Hg (1016.7 mb)
[Sea-level pressure: 1016.4 mb]
Winds: from the SSE (150 degrees) at 12 MPH (10 knots; 5.2 m/s)
Visibility: 8 miles (13 km)
Ceiling: 4600 feet AGL
Clouds: broken clouds at 4600 feet AGL
broken clouds at 6000 feet AGL
Present Weather:
SOME DATA ABOVE MAY BE INACCURATE!!!
"$" is an indication the sensor requires maintenance
KAPF 281853Z 15010KT 8SM BKN046 BKN060 31/23 A3002 RMK AO2 RAB46E49 SLP164 P0001 T03110233 $

Conditions at: KAPF observed 28 April 2017  17:53 UTC
Temperature: 31.1°C (88°F)
Dewpoint: 21.1°C (70°F) [RH = 55%]
Pressure (altimeter): 30.03 inches Hg (1017.0 mb)
[Sea-level pressure: 1016.7 mb]
Winds: from the SW (220 degrees) at 14 MPH (12 knots; 6.2 m/s)
Visibility: 10 or more miles (16+ km)
Ceiling: 4400 feet AGL
Clouds: broken clouds at 4400 feet AGL
Present Weather:
SOME DATA ABOVE MAY BE INACCURATE!!!
"$" is an indication the sensor requires maintenance
KAPF 281753Z 22012KT 10SM BKN044 31/21 A3003 RMK AO2 SLP167 T03110211 10339 20250 58010 $

Conditions at: KAPF observed 28 April 2017  16:53 UTC
Temperature: 32.8°C (91°F)
Dewpoint: 21.1°C (70°F) [RH = 50%]
Pressure (altimeter): 30.04 inches Hg (1017.4 mb)
[Sea-level pressure: 1017.1 mb]
Winds: from the S (190 degrees) at 13 MPH (11 knots; 5.7 m/s)
Visibility: 10 or more miles (16+ km)
Ceiling: at least 12,000 feet AGL
Clouds: scattered clouds at 4200 feet AGL
Present Weather:
SOME DATA ABOVE MAY BE INACCURATE!!!
"$" is an indication the sensor requires maintenance
KAPF 281653Z 19011KT 10SM SCT042 33/21 A3004 RMK AO2 SLP171 T03280211 $

Conditions at: KAPF observed 28 April 2017  15:53 UTC
Temperature: 32.2°C (90°F)
Dewpoint: 21.7°C (71°F) [RH = 54%]
Pressure (altimeter): 30.06 inches Hg (1018.0 mb)
[Sea-level pressure: 1017.7 mb]
Winds: from the SE (140 degrees) at 13 MPH (11 knots; 5.7 m/s)
Visibility: 10 or more miles (16+ km)
Ceiling: 3700 feet AGL
Clouds: scattered clouds at 2900 feet AGL
broken clouds at 3700 feet AGL
Present Weather:
SOME DATA ABOVE MAY BE INACCURATE!!!
"$" is an indication the sensor requires maintenance
KAPF 281553Z 14011KT 10SM SCT029 BKN037 32/22 A3006 RMK AO2 SLP177 T03220217 $